Time;durP1;ratioP1;P1;durP2;ratioP2;P2;SDS_P1;SDS_P2;PMS_P1;PMS_P2;Temp;Humidity;BMP_temperature;BMP_pressure;BME280_temperature;BME280_humidity;BME280_pressure;Samples;Min_cycle;Max_cycle;Signal;HPM_P1;HPM_P2
2021/07/04 00:00:16;;;;;;;12.53;11.40;;;21.50;99.90;;;;;;5051010;28;20547;-85
2021/07/04 00:02:43;;;;;;;12.53;11.50;;;21.70;99.90;;;;;;5052981;28;20444;-87
2021/07/04 00:05:14;;;;;;;13.30;12.10;;;22.00;99.90;;;;;;5066474;28;20877;-86
2021/07/04 00:07:42;;;;;;;11.03;10.23;;;21.90;99.90;;;;;;5052546;28;20464;-86
2021/07/04 00:10:15;;;;;;;11.97;10.97;;;21.80;99.90;;;;;;5051179;28;20467;-85
2021/07/04 00:12:42;;;;;;;13.00;11.90;;;21.80;99.90;;;;;;5050533;28;20445;-85
2021/07/04 00:15:13;;;;;;;13.23;12.10;;;21.90;99.90;;;;;;5048538;28;20474;-85
2021/07/04 00:17:39;;;;;;;14.13;12.23;;;21.90;99.90;;;;;;5044031;28;20463;-85
2021/07/04 00:20:12;;;;;;;15.00;11.97;;;21.90;99.90;;;;;;5046036;28;20441;-85
2021/07/04 00:22:40;;;;;;;13.83;12.57;;;21.90;99.90;;;;;;5050108;28;20948;-86
2021/07/04 00:25:10;;;;;;;14.57;13.37;;;21.70;99.90;;;;;;5048252;28;20476;-87
2021/07/04 00:27:37;;;;;;;13.10;11.80;;;21.70;99.90;;;;;;5050153;28;20456;-87
2021/07/04 00:30:07;;;;;;;12.90;11.90;;;21.60;99.90;;;;;;5053232;28;20551;-85
2021/07/04 00:32:34;;;;;;;14.13;12.83;;;21.50;99.90;;;;;;5050920;28;20444;-85
2021/07/04 00:35:02;;;;;;;13.27;12.07;;;21.40;99.90;;;;;;5048518;28;20503;-86
2021/07/04 00:37:29;;;;;;;13.43;12.13;;;21.40;99.90;;;;;;5048316;28;20453;-85
2021/07/04 00:39:55;;;;;;;13.33;12.13;;;21.50;99.90;;;;;;5046905;28;20893;-85
2021/07/04 00:42:23;;;;;;;13.03;11.83;;;21.50;99.90;;;;;;5047504;28;20575;-84
2021/07/04 00:44:51;;;;;;;11.63;10.63;;;21.50;99.90;;;;;;5049084;28;20479;-85
2021/07/04 00:47:18;;;;;;;13.37;12.10;;;21.30;99.90;;;;;;5048873;28;20451;-85
2021/07/04 00:49:47;;;;;;;11.90;11.00;;;21.20;99.90;;;;;;5048669;28;20449;-85
2021/07/04 00:52:17;;;;;;;12.93;11.63;;;21.20;99.90;;;;;;5047141;28;21058;-85
2021/07/04 00:54:44;;;;;;;11.43;10.43;;;21.10;99.90;;;;;;5046917;28;20836;-87
2021/07/04 00:57:11;;;;;;;11.80;10.80;;;21.10;99.90;;;;;;5050237;28;20811;-86
2021/07/04 00:59:38;;;;;;;11.30;10.30;;;21.20;99.90;;;;;;5047139;28;20460;-85
2021/07/04 01:02:04;;;;;;;11.60;10.70;;;21.30;99.90;;;;;;5046112;28;20568;-85
2021/07/04 01:04:31;;;;;;;11.60;10.60;;;21.50;99.90;;;;;;5049346;28;20448;-83
2021/07/04 01:06:58;;;;;;;11.30;10.20;;;21.40;99.90;;;;;;5048308;28;20548;-86
2021/07/04 01:09:25;;;;;;;9.77;8.97;;;21.20;99.90;;;;;;5057206;28;20557;-85
2021/07/04 01:11:51;;;;;;;11.07;10.07;;;21.50;99.90;;;;;;5046202;28;20795;-85
2021/07/04 01:14:18;;;;;;;11.40;10.50;;;21.50;99.90;;;;;;5045883;28;20529;-84
2021/07/04 01:16:45;;;;;;;11.10;10.20;;;21.40;99.90;;;;;;4706558;28;10000563;-84
2021/07/04 01:19:17;;;;;;;12.20;11.30;;;21.40;99.90;;;;;;5053078;28;20197;-86
2021/07/04 01:21:45;;;;;;;11.20;10.10;;;21.20;99.90;;;;;;5047478;28;20485;-85
2021/07/04 01:24:12;;;;;;;11.10;10.20;;;21.10;99.90;;;;;;5041744;28;20461;-86
2021/07/04 01:26:39;;;;;;;12.73;11.57;;;21.20;99.90;;;;;;5044222;28;20699;-85
2021/07/04 01:29:06;;;;;;;12.17;11.17;;;21.10;99.90;;;;;;5041882;28;20479;-86
2021/07/04 01:31:33;;;;;;;12.53;11.37;;;21.00;99.90;;;;;;5045686;28;20896;-85
2021/07/04 01:34:01;;;;;;;12.27;10.40;;;20.90;99.90;;;;;;5042880;28;20449;-85
2021/07/04 01:36:27;;;;;;;15.80;11.90;;;20.90;99.90;;;;;;5046532;28;20546;-84
2021/07/04 01:38:54;;;;;;;12.20;11.10;;;21.10;99.90;;;;;;5051175;28;20483;-84
2021/07/04 01:41:21;;;;;;;12.17;11.07;;;21.10;99.90;;;;;;5040834;28;20470;-85
2021/07/04 01:43:48;;;;;;;12.90;11.80;;;21.00;99.90;;;;;;5041733;28;20452;-87
2021/07/04 01:46:15;;;;;;;11.80;10.80;;;20.90;99.90;;;;;;5047988;28;20992;-86
2021/07/04 01:48:42;;;;;;;12.73;11.63;;;21.10;99.90;;;;;;5046020;28;20522;-85
2021/07/04 01:51:08;;;;;;;12.13;11.03;;;21.00;99.90;;;;;;5049500;28;20432;-84
2021/07/04 01:53:36;;;;;;;13.07;11.77;;;21.10;99.90;;;;;;5047255;28;20474;-85
2021/07/04 01:56:05;;;;;;;11.87;10.80;;;21.10;99.90;;;;;;5044794;28;20486;-85
2021/07/04 01:58:32;;;;;;;11.43;10.43;;;20.90;99.90;;;;;;5040550;28;20546;-84
2021/07/04 02:00:59;;;;;;;10.73;9.83;;;20.80;99.90;;;;;;5042791;28;20476;-84
2021/07/04 02:03:25;;;;;;;13.47;12.03;;;20.80;99.90;;;;;;5044130;28;20817;-84
2021/07/04 02:05:52;;;;;;;11.57;10.57;;;20.90;99.90;;;;;;5046251;28;20484;-85
2021/07/04 02:08:19;;;;;;;12.27;11.17;;;20.90;99.90;;;;;;5047783;28;20537;-85
2021/07/04 02:10:45;;;;;;;11.90;10.70;;;20.80;99.90;;;;;;5072861;28;20455;-84
2021/07/04 02:13:12;;;;;;;11.17;10.17;;;20.80;99.90;;;;;;5063087;28;20463;-85
2021/07/04 02:15:40;;;;;;;11.50;10.47;;;20.90;99.90;;;;;;5062745;28;20559;-86
2021/07/04 02:18:16;;;;;;;11.57;10.47;;;21.00;99.90;;;;;;5049854;28;20495;-85
2021/07/04 02:20:54;;;;;;;11.80;10.80;;;21.20;99.90;;;;;;5060026;28;20660;-86
2021/07/04 02:23:32;;;;;;;11.10;10.10;;;21.00;99.90;;;;;;5071708;28;20451;-86
2021/07/04 02:26:00;;;;;;;11.67;10.67;;;20.90;99.90;;;;;;5072038;28;20476;-86
2021/07/04 02:28:28;;;;;;;10.77;9.87;;;20.80;99.90;;;;;;5085096;28;20460;-86
2021/07/04 02:30:56;;;;;;;10.77;9.67;;;20.70;99.90;;;;;;5052965;28;20468;-84
2021/07/04 02:33:25;;;;;;;10.10;9.13;;;20.70;99.90;;;;;;5058285;28;20479;-84
2021/07/04 02:35:54;;;;;;;10.53;9.20;;;20.80;99.90;;;;;;5060877;28;20452;-86
2021/07/04 02:38:21;;;;;;;9.50;8.60;;;20.80;99.90;;;;;;5067925;28;20463;-85
2021/07/04 02:40:51;;;;;;;9.90;9.00;;;20.50;99.90;;;;;;5062651;28;20500;-84
2021/07/04 02:43:21;;;;;;;9.97;9.10;;;20.50;99.90;;;;;;5065923;28;20465;-87
2021/07/04 02:45:48;;;;;;;10.47;9.53;;;20.50;99.90;;;;;;5065690;28;20476;-87
2021/07/04 02:48:15;;;;;;;11.03;10.03;;;20.40;99.90;;;;;;5063730;28;20453;-85
2021/07/04 02:50:44;;;;;;;9.93;9.13;;;20.50;99.90;;;;;;5052232;28;20503;-86
2021/07/04 02:53:11;;;;;;;11.30;10.40;;;20.50;99.90;;;;;;5055097;28;20457;-84
2021/07/04 02:55:38;;;;;;;11.23;10.23;;;20.50;99.90;;;;;;5066471;28;20472;-85
2021/07/04 02:58:05;;;;;;;10.93;9.87;;;20.40;99.90;;;;;;5054625;28;20460;-84
2021/07/04 03:00:32;;;;;;;11.10;10.00;;;20.30;99.90;;;;;;5055629;28;20494;-84
2021/07/04 03:03:00;;;;;;;11.57;10.53;;;20.10;99.90;;;;;;5059742;28;20480;-84
2021/07/04 03:05:26;;;;;;;10.53;9.63;;;20.00;99.90;;;;;;5055759;28;20455;-85
2021/07/04 03:07:53;;;;;;;10.50;9.60;;;20.10;99.90;;;;;;5056634;28;20458;-83
2021/07/04 03:10:21;;;;;;;9.73;8.80;;;20.10;99.90;;;;;;5052752;28;20447;-83
2021/07/04 03:12:48;;;;;;;10.50;9.50;;;20.10;99.90;;;;;;5052931;28;21000;-84
2021/07/04 03:15:16;;;;;;;11.43;10.37;;;20.00;99.90;;;;;;5049488;28;20526;-83
2021/07/04 03:17:43;;;;;;;11.00;10.00;;;20.10;99.90;;;;;;5053469;28;20727;-85
2021/07/04 03:20:11;;;;;;;11.40;10.40;;;20.20;99.90;;;;;;5050804;28;20468;-83
2021/07/04 03:22:38;;;;;;;10.60;9.50;;;20.10;99.90;;;;;;5052713;28;20476;-84
2021/07/04 03:25:07;;;;;;;10.53;9.63;;;19.90;99.90;;;;;;5048607;28;20841;-84
2021/07/04 03:27:35;;;;;;;10.57;9.57;;;20.00;99.90;;;;;;5046914;28;20870;-84
2021/07/04 03:30:05;;;;;;;11.27;10.37;;;20.10;99.90;;;;;;5047771;28;20805;-84
2021/07/04 03:32:32;;;;;;;11.93;10.87;;;20.20;99.90;;;;;;5050454;28;20447;-86
2021/07/04 03:34:58;;;;;;;11.50;10.17;;;20.20;99.90;;;;;;5046154;28;20503;-85
2021/07/04 03:37:25;;;;;;;10.60;9.50;;;20.20;99.90;;;;;;5049978;28;20452;-84
2021/07/04 03:39:52;;;;;;;11.43;10.33;;;20.30;99.90;;;;;;5044917;28;20456;-84
2021/07/04 03:42:19;;;;;;;11.57;10.57;;;20.40;99.90;;;;;;5049007;28;20470;-85
2021/07/04 03:44:45;;;;;;;9.77;8.93;;;20.40;99.90;;;;;;5057136;28;20471;-86
2021/07/04 03:47:12;;;;;;;10.27;9.27;;;20.20;99.90;;;;;;5060627;28;20458;-85
2021/07/04 03:49:39;;;;;;;10.00;9.10;;;20.30;99.90;;;;;;5063425;28;20460;-84
2021/07/04 03:52:06;;;;;;;13.30;10.93;;;20.30;99.90;;;;;;5061423;28;20452;-84
2021/07/04 03:54:33;;;;;;;10.30;9.30;;;20.40;99.90;;;;;;5053718;28;20899;-86
2021/07/04 03:56:59;;;;;;;11.17;10.17;;;20.50;99.90;;;;;;5050420;28;20968;-86
2021/07/04 03:59:56;;;;;;;12.73;10.23;;;20.60;99.90;;;;;;5050709;28;20534;-87
2021/07/04 04:02:23;;;;;;;10.73;9.70;;;20.50;99.90;;;;;;5053601;28;20479;-86
2021/07/04 04:04:55;;;;;;;10.80;9.70;;;20.40;99.90;;;;;;5051586;28;20475;-85
2021/07/04 04:07:22;;;;;;;10.50;9.50;;;20.20;99.90;;;;;;5055144;28;20444;-86
2021/07/04 04:09:51;;;;;;;10.20;9.20;;;20.20;99.90;;;;;;5049655;28;20448;-85
2021/07/04 04:12:19;;;;;;;9.60;8.70;;;20.00;99.90;;;;;;5051709;28;20459;-86
2021/07/04 04:14:46;;;;;;;9.40;8.47;;;20.30;99.90;;;;;;5050453;28;21048;-84
2021/07/04 04:17:13;;;;;;;9.63;8.43;;;20.40;99.90;;;;;;5051989;28;20460;-85
2021/07/04 04:19:40;;;;;;;9.47;8.67;;;20.30;99.90;;;;;;5058418;28;20451;-85
2021/07/04 04:22:07;;;;;;;9.40;8.50;;;20.20;99.90;;;;;;5057847;28;20540;-84
2021/07/04 04:24:34;;;;;;;11.13;9.20;;;20.40;99.90;;;;;;5058513;28;20504;-84
2021/07/04 04:27:01;;;;;;;10.17;9.23;;;20.40;99.90;;;;;;5059412;28;20437;-85
2021/07/04 04:29:28;;;;;;;10.50;9.40;;;20.60;99.90;;;;;;5060844;28;21021;-86
2021/07/04 04:31:55;;;;;;;10.43;9.53;;;20.70;99.90;;;;;;5059852;28;20443;-85
2021/07/04 04:34:23;;;;;;;9.83;8.93;;;20.70;99.90;;;;;;5060183;28;20449;-87
2021/07/04 04:36:50;;;;;;;10.53;9.63;;;20.50;99.90;;;;;;5059616;28;20985;-85
2021/07/04 04:39:20;;;;;;;15.73;10.27;;;20.60;99.90;;;;;;5059935;28;20972;-85
2021/07/04 04:41:50;;;;;;;9.83;8.93;;;20.60;99.90;;;;;;5062206;28;20480;-85
2021/07/04 04:44:31;;;;;;;10.23;9.27;;;20.50;99.90;;;;;;5061324;28;20528;-85
2021/07/04 04:46:57;;;;;;;11.20;10.10;;;20.70;99.90;;;;;;5078721;28;20952;-85
2021/07/04 04:49:25;;;;;;;13.17;10.63;;;20.80;99.90;;;;;;5063279;28;20449;-84
2021/07/04 04:51:52;;;;;;;10.70;9.60;;;20.80;99.90;;;;;;5060918;28;20490;-85
2021/07/04 04:54:19;;;;;;;11.20;10.23;;;20.80;99.90;;;;;;5060520;28;20917;-84
2021/07/04 04:56:46;;;;;;;10.93;9.93;;;20.80;99.90;;;;;;5060960;28;20563;-86
2021/07/04 04:59:13;;;;;;;9.60;8.80;;;20.80;99.90;;;;;;5059043;28;20949;-86
2021/07/04 05:01:40;;;;;;;10.80;9.77;;;20.60;99.90;;;;;;5059835;28;20479;-85
2021/07/04 05:04:09;;;;;;;10.97;9.87;;;20.50;99.90;;;;;;5057462;28;20461;-85
2021/07/04 05:06:37;;;;;;;10.60;9.43;;;20.70;99.90;;;;;;5058585;28;20460;-85
2021/07/04 05:09:06;;;;;;;9.73;8.83;;;20.70;99.90;;;;;;5061546;28;20547;-85
2021/07/04 05:11:34;;;;;;;9.80;8.93;;;20.50;99.90;;;;;;5062815;28;20531;-84
2021/07/04 05:14:01;;;;;;;10.30;9.30;;;20.50;99.90;;;;;;5058628;28;20449;-86
2021/07/04 05:16:29;;;;;;;10.00;9.20;;;20.70;99.90;;;;;;5060627;28;20551;-86
2021/07/04 05:18:58;;;;;;;10.93;9.63;;;20.50;99.90;;;;;;5057426;28;21430;-88
2021/07/04 05:21:25;;;;;;;10.40;9.20;;;20.30;99.90;;;;;;5062584;28;20470;-88
2021/07/04 05:23:51;;;;;;;9.53;8.60;;;20.30;99.90;;;;;;5057378;28;20440;-85
2021/07/04 05:26:19;;;;;;;9.43;8.63;;;20.60;99.90;;;;;;5058762;28;20464;-86
2021/07/04 05:28:46;;;;;;;9.83;8.60;;;20.60;99.90;;;;;;5056614;28;20547;-86
2021/07/04 05:31:13;;;;;;;9.03;8.10;;;20.60;99.90;;;;;;5058342;28;20452;-85
2021/07/04 05:33:40;;;;;;;9.53;8.63;;;20.60;99.90;;;;;;5057655;28;20851;-86
2021/07/04 05:36:09;;;;;;;10.93;9.13;;;20.90;99.90;;;;;;5055766;28;20964;-86
2021/07/04 05:38:38;;;;;;;11.87;9.53;;;21.00;99.90;;;;;;5057984;28;20531;-86
2021/07/04 05:41:05;;;;;;;9.50;8.60;;;21.20;99.90;;;;;;5058625;28;21474;-86
2021/07/04 05:43:32;;;;;;;10.83;8.67;;;21.30;99.90;;;;;;5058345;28;20895;-85
2021/07/04 05:45:59;;;;;;;14.57;9.87;;;21.10;99.90;;;;;;5054467;28;21059;-86
2021/07/04 05:48:28;;;;;;;11.70;10.30;;;21.00;99.90;;;;;;5057445;28;20435;-84
2021/07/04 05:50:55;;;;;;;10.27;9.37;;;21.10;99.90;;;;;;5057397;28;20959;-85
2021/07/04 05:53:22;;;;;;;9.70;8.77;;;21.00;99.90;;;;;;5058483;28;20462;-85
2021/07/04 05:55:50;;;;;;;9.80;8.90;;;21.40;99.90;;;;;;5058797;28;20493;-84
2021/07/04 05:58:16;;;;;;;10.00;9.10;;;21.50;99.90;;;;;;5059575;28;20991;-85
2021/07/04 06:00:43;;;;;;;11.37;8.37;;;21.50;99.90;;;;;;5056888;28;20821;-85
2021/07/04 06:03:10;;;;;;;10.80;9.80;;;21.40;99.90;;;;;;5059147;28;20476;-85
2021/07/04 06:05:37;;;;;;;11.00;9.87;;;21.50;99.90;;;;;;5059045;28;20835;-85
2021/07/04 06:08:04;;;;;;;10.97;9.57;;;21.50;99.90;;;;;;5055755;28;20519;-86
2021/07/04 06:10:34;;;;;;;10.20;9.40;;;21.50;99.90;;;;;;5059474;28;20533;-85
2021/07/04 06:13:01;;;;;;;12.13;9.30;;;21.40;99.90;;;;;;5057455;28;20460;-86
2021/07/04 06:15:28;;;;;;;9.40;8.70;;;21.50;99.90;;;;;;5056817;28;20476;-85
2021/07/04 06:17:55;;;;;;;10.73;9.73;;;21.50;99.90;;;;;;5056613;28;20512;-84
2021/07/04 06:20:23;;;;;;;11.17;10.07;;;21.70;99.90;;;;;;5058340;28;20535;-85
2021/07/04 06:22:53;;;;;;;9.77;8.87;;;21.60;99.90;;;;;;5060890;28;20551;-85
2021/07/04 06:25:22;;;;;;;10.20;9.30;;;22.00;99.90;;;;;;5060371;28;20467;-85
2021/07/04 06:27:50;;;;;;;10.10;9.10;;;22.30;99.90;;;;;;5060869;28;20452;-86
2021/07/04 06:30:18;;;;;;;11.30;10.30;;;22.40;99.90;;;;;;5061523;28;20467;-85
2021/07/04 06:32:45;;;;;;;12.60;11.07;;;22.30;99.90;;;;;;5056300;28;20873;-84
2021/07/04 06:35:15;;;;;;;11.47;10.47;;;22.20;99.90;;;;;;5056350;28;20463;-84
2021/07/04 06:37:43;;;;;;;10.63;9.67;;;22.20;99.90;;;;;;5056981;28;20463;-84
2021/07/04 06:40:11;;;;;;;11.17;10.10;;;22.10;99.90;;;;;;5057387;28;20452;-85
2021/07/04 06:42:39;;;;;;;10.03;9.10;;;22.20;99.90;;;;;;5055424;28;20916;-85
2021/07/04 06:45:10;;;;;;;10.00;9.10;;;22.20;99.90;;;;;;5055119;28;20544;-86
2021/07/04 06:47:46;;;;;;;9.43;8.63;;;22.30;99.90;;;;;;5055269;28;20762;-85
2021/07/04 06:50:15;;;;;;;9.80;9.00;;;22.40;99.90;;;;;;5056375;28;20465;-85
2021/07/04 06:52:43;;;;;;;10.10;9.10;;;22.50;99.90;;;;;;5055842;28;20445;-83
2021/07/04 06:55:11;;;;;;;9.83;8.93;;;22.60;99.90;;;;;;5056273;28;20976;-84
2021/07/04 06:57:38;;;;;;;9.60;8.70;;;22.40;99.90;;;;;;5054714;28;21032;-86
2021/07/04 07:00:10;;;;;;;9.13;8.37;;;22.30;99.90;;;;;;5054039;28;20507;-83
2021/07/04 07:02:38;;;;;;;10.30;9.30;;;22.70;99.90;;;;;;5056701;28;20504;-84
2021/07/04 07:05:12;;;;;;;9.60;8.53;;;23.00;99.90;;;;;;5051888;28;20533;-85
2021/07/04 07:07:41;;;;;;;8.70;7.90;;;23.30;99.90;;;;;;5053958;28;20439;-84
2021/07/04 07:10:10;;;;;;;9.53;8.73;;;23.30;99.90;;;;;;5054475;28;20956;-83
2021/07/04 07:12:41;;;;;;;10.13;9.23;;;23.30;99.90;;;;;;5054786;28;20447;-85
2021/07/04 07:15:10;;;;;;;8.57;7.87;;;23.30;99.90;;;;;;5054499;28;20534;-85
2021/07/04 07:17:40;;;;;;;8.60;7.80;;;23.30;99.90;;;;;;5055559;28;20484;-84
2021/07/04 07:20:08;;;;;;;11.93;10.73;;;23.30;99.90;;;;;;5056733;28;20493;-85
2021/07/04 07:22:38;;;;;;;9.47;8.67;;;23.40;99.90;;;;;;5057901;28;20513;-86
2021/07/04 07:25:07;;;;;;;9.90;9.00;;;23.30;99.90;;;;;;5054586;28;20468;-84
2021/07/04 07:27:35;;;;;;;9.60;8.80;;;23.20;99.90;;;;;;5047539;28;20521;-84
2021/07/04 07:30:05;;;;;;;9.30;8.40;;;23.20;99.90;;;;;;5051040;28;20945;-85
2021/07/04 07:32:32;;;;;;;10.27;9.30;;;23.20;99.90;;;;;;5048587;28;20506;-84
2021/07/04 07:34:59;;;;;;;9.60;8.80;;;23.30;99.90;;;;;;5048941;28;20468;-85
2021/07/04 07:37:28;;;;;;;9.53;8.53;;;23.40;99.90;;;;;;5051376;28;21050;-86
2021/07/04 07:39:55;;;;;;;9.80;8.80;;;23.30;99.90;;;;;;5055164;28;20638;-85
2021/07/04 07:42:26;;;;;;;9.83;9.03;;;23.20;99.90;;;;;;5053446;28;20519;-85
2021/07/04 07:44:58;;;;;;;9.23;8.33;;;23.30;99.90;;;;;;5049155;28;20530;-86
2021/07/04 07:47:25;;;;;;;10.23;9.20;;;23.40;99.90;;;;;;5054157;28;20479;-86
2021/07/04 07:49:52;;;;;;;10.20;9.23;;;23.50;99.90;;;;;;5048193;28;20452;-86
2021/07/04 07:52:19;;;;;;;10.63;9.70;;;23.60;99.90;;;;;;5048195;28;20822;-85
2021/07/04 07:54:46;;;;;;;9.60;8.90;;;23.60;99.90;;;;;;5048983;28;20516;-87
2021/07/04 07:57:13;;;;;;;10.37;8.60;;;23.70;99.90;;;;;;5065177;28;20467;-85
2021/07/04 07:59:43;;;;;;;9.80;8.87;;;23.80;99.90;;;;;;5053960;28;20468;-84
2021/07/04 08:02:10;;;;;;;8.50;7.80;;;24.00;99.90;;;;;;5048008;28;20460;-85
2021/07/04 08:04:38;;;;;;;8.87;8.00;;;23.80;99.90;;;;;;5063041;28;20428;-88
2021/07/04 08:07:05;;;;;;;9.73;8.77;;;24.10;99.90;;;;;;5074050;28;20448;-87
2021/07/04 08:09:32;;;;;;;9.37;8.40;;;24.30;99.80;;;;;;5072822;28;20447;-88
2021/07/04 08:11:59;;;;;;;9.60;8.60;;;24.30;99.70;;;;;;5072177;28;20471;-87
2021/07/04 08:14:28;;;;;;;9.70;8.70;;;24.40;99.90;;;;;;5067079;28;20453;-84
2021/07/04 08:16:55;;;;;;;10.10;9.10;;;24.70;98.90;;;;;;5048592;28;20484;-83
2021/07/04 08:19:22;;;;;;;9.30;8.50;;;24.80;97.90;;;;;;5047825;28;20460;-83
2021/07/04 08:21:49;;;;;;;9.33;8.63;;;24.60;98.60;;;;;;5045761;28;20454;-85
2021/07/04 08:24:16;;;;;;;9.67;8.70;;;24.70;98.50;;;;;;5046480;28;20573;-84
2021/07/04 08:26:43;;;;;;;9.90;8.90;;;24.80;98.30;;;;;;4700339;28;10000451;-84
2021/07/04 08:29:09;;;;;;;9.80;8.63;;;24.70;98.30;;;;;;5051413;28;21013;-83
2021/07/04 08:31:36;;;;;;;10.10;9.00;;;24.70;98.30;;;;;;5049793;28;20536;-85
2021/07/04 08:34:04;;;;;;;9.20;8.40;;;24.80;97.80;;;;;;5049220;28;20909;-83
2021/07/04 08:36:32;;;;;;;8.73;8.03;;;24.90;97.40;;;;;;5050491;28;20984;-84
2021/07/04 08:38:59;;;;;;;9.03;8.33;;;25.00;97.20;;;;;;5048972;28;20863;-84
2021/07/04 08:41:26;;;;;;;8.27;7.57;;;25.10;96.80;;;;;;5047240;28;20471;-84
2021/07/04 08:43:53;;;;;;;8.70;7.93;;;24.80;97.20;;;;;;5048584;28;21003;-83
2021/07/04 08:46:20;;;;;;;9.07;8.37;;;25.10;96.90;;;;;;5047007;28;20480;-84
2021/07/04 08:48:48;;;;;;;9.10;8.27;;;25.10;96.50;;;;;;5063770;28;20976;-85
2021/07/04 08:51:15;;;;;;;10.20;9.10;;;25.10;97.00;;;;;;5046801;28;20449;-84
2021/07/04 08:53:42;;;;;;;9.30;8.20;;;25.30;96.50;;;;;;5047630;28;20471;-85
2021/07/04 08:56:09;;;;;;;9.20;8.40;;;25.30;96.60;;;;;;5048403;28;20480;-83
2021/07/04 08:58:36;;;;;;;9.97;8.20;;;25.20;96.20;;;;;;5049497;28;20471;-84
2021/07/04 09:01:26;;;;;;;8.30;7.60;;;25.40;96.50;;;;;;5050519;28;20530;-85
2021/07/04 09:03:56;;;;;;;8.40;7.70;;;26.10;95.30;;;;;;5058122;28;20480;-86
2021/07/04 09:06:36;;;;;;;8.97;8.10;;;26.30;94.80;;;;;;5053031;28;21041;-84
2021/07/04 09:09:18;;;;;;;9.63;8.53;;;26.50;94.00;;;;;;5053284;28;20460;-85
2021/07/04 09:11:56;;;;;;;9.07;7.93;;;26.70;93.90;;;;;;5052736;28;20480;-85
2021/07/04 09:14:27;;;;;;;8.07;7.47;;;27.10;92.70;;;;;;5061860;28;20456;-85
2021/07/04 09:16:54;;;;;;;8.90;8.03;;;26.90;92.80;;;;;;5064769;28;21419;-86
2021/07/04 09:19:21;;;;;;;8.30;7.60;;;27.10;92.60;;;;;;5060173;28;20460;-84
2021/07/04 09:22:06;;;;;;;7.60;7.00;;;27.90;91.40;;;;;;5058087;28;20455;-85
2021/07/04 09:24:38;;;;;;;7.80;7.00;;;28.00;90.20;;;;;;5054106;28;20475;-85
2021/07/04 09:27:05;;;;;;;8.77;7.80;;;27.60;90.80;;;;;;5056093;28;20441;-86
2021/07/04 09:29:52;;;;;;;9.60;8.80;;;27.80;90.40;;;;;;5054856;28;20470;-84
2021/07/04 09:32:26;;;;;;;9.50;8.80;;;27.80;90.50;;;;;;5055182;28;20459;-85
2021/07/04 09:34:58;;;;;;;8.60;7.97;;;27.70;90.50;;;;;;5050707;28;20475;-84
2021/07/04 09:37:45;;;;;;;9.70;8.90;;;27.20;91.20;;;;;;5054602;28;20464;-85
2021/07/04 09:40:18;;;;;;;9.37;8.57;;;26.70;92.10;;;;;;5052795;28;21569;-84
2021/07/04 09:42:56;;;;;;;9.43;8.57;;;26.30;93.00;;;;;;5055083;28;20464;-85
2021/07/04 09:45:40;;;;;;;8.80;8.10;;;26.10;93.20;;;;;;5052967;28;20467;-84
2021/07/04 09:48:08;;;;;;;8.40;7.70;;;26.00;93.30;;;;;;5051703;28;20588;-84
2021/07/04 09:50:45;;;;;;;8.80;8.00;;;25.50;93.90;;;;;;5063301;28;20448;-84
2021/07/04 09:53:13;;;;;;;9.70;8.57;;;25.20;94.40;;;;;;5055094;28;21182;-83
2021/07/04 09:55:41;;;;;;;8.90;8.10;;;25.20;94.40;;;;;;5055433;28;20571;-85
2021/07/04 09:58:11;;;;;;;8.90;8.07;;;25.10;94.90;;;;;;5053265;28;20465;-84
2021/07/04 10:00:41;;;;;;;8.40;7.60;;;25.10;94.70;;;;;;5052904;28;20928;-84
2021/07/04 10:03:20;;;;;;;9.57;8.63;;;24.90;95.00;;;;;;5054122;28;21013;-83
2021/07/04 10:05:50;;;;;;;8.70;8.00;;;24.70;95.20;;;;;;5056514;28;20503;-85
2021/07/04 10:08:19;;;;;;;8.90;8.00;;;24.50;95.80;;;;;;5053481;28;20610;-83
2021/07/04 10:10:46;;;;;;;9.87;8.97;;;24.50;96.40;;;;;;5055684;28;20554;-84
2021/07/04 10:13:13;;;;;;;8.10;7.37;;;24.40;96.40;;;;;;5053604;28;20451;-86
2021/07/04 10:15:41;;;;;;;7.97;7.27;;;24.20;97.00;;;;;;5053041;28;20475;-84
2021/07/04 10:18:09;;;;;;;7.90;7.20;;;24.20;97.20;;;;;;5054685;28;20570;-84
2021/07/04 10:20:41;;;;;;;7.70;7.00;;;24.20;96.70;;;;;;5052505;28;21332;-83
2021/07/04 10:23:10;;;;;;;8.40;7.60;;;24.10;97.10;;;;;;5050387;28;20484;-83
2021/07/04 10:25:36;;;;;;;8.07;7.33;;;23.90;97.60;;;;;;5050821;28;20476;-85
2021/07/04 10:28:04;;;;;;;5.40;5.00;;;23.90;98.20;;;;;;5053545;28;20456;-86
2021/07/04 10:30:32;;;;;;;7.53;6.10;;;23.80;97.80;;;;;;5050203;28;20559;-85
2021/07/04 10:33:12;;;;;;;6.63;6.10;;;23.70;97.50;;;;;;5050207;28;20441;-84
2021/07/04 10:36:03;;;;;;;7.60;6.73;;;23.50;98.40;;;;;;5051289;28;20494;-84
2021/07/04 10:38:38;;;;;;;6.93;6.40;;;23.50;98.50;;;;;;4701509;28;10000136;-85
2021/07/04 10:41:15;;;;;;;6.50;6.00;;;23.40;99.10;;;;;;5049550;28;20280;-85
2021/07/04 10:43:48;;;;;;;6.27;5.77;;;23.30;99.90;;;;;;5050616;28;20483;-86
2021/07/04 10:46:15;;;;;;;7.10;6.50;;;23.10;99.90;;;;;;5056425;28;20476;-87
2021/07/04 10:48:56;;;;;;;5.77;5.27;;;22.90;99.90;;;;;;5052762;28;20540;-84
2021/07/04 10:51:24;;;;;;;4.53;4.20;;;22.80;99.90;;;;;;5051572;28;20466;-83
2021/07/04 10:53:53;;;;;;;4.23;3.80;;;22.80;99.60;;;;;;5050204;28;20482;-85
2021/07/04 10:56:36;;;;;;;4.17;3.80;;;22.90;99.40;;;;;;5049544;28;20480;-84
2021/07/04 10:59:13;;;;;;;4.43;4.03;;;22.80;98.60;;;;;;5053302;28;20467;-84
2021/07/04 11:01:56;;;;;;;4.13;3.73;;;23.00;98.60;;;;;;5051972;28;20459;-84
2021/07/04 11:04:37;;;;;;;3.90;3.60;;;23.20;98.10;;;;;;5046305;28;20558;-84
2021/07/04 11:07:06;;;;;;;3.33;3.03;;;23.60;97.30;;;;;;5050693;28;20494;-86
2021/07/04 11:09:51;;;;;;;3.60;3.30;;;23.80;96.70;;;;;;5047171;28;20460;-84
2021/07/04 11:12:29;;;;;;;4.20;3.90;;;23.70;96.80;;;;;;5049981;28;20464;-86
2021/07/04 11:15:11;;;;;;;4.70;4.40;;;23.90;96.90;;;;;;5053470;28;20480;-85
2021/07/04 11:17:59;;;;;;;4.80;4.30;;;24.10;97.20;;;;;;5052207;28;20455;-83
2021/07/04 11:20:27;;;;;;;4.87;4.47;;;24.00;97.60;;;;;;5052035;28;20459;-84
2021/07/04 11:23:06;;;;;;;7.10;5.03;;;24.50;97.00;;;;;;5060263;28;20448;-84
2021/07/04 11:25:44;;;;;;;4.43;4.00;;;24.60;96.90;;;;;;5053138;28;21136;-84
2021/07/04 11:28:17;;;;;;;4.53;4.13;;;24.80;96.30;;;;;;5054007;28;20454;-84
2021/07/04 11:31:06;;;;;;;5.03;4.60;;;25.00;95.90;;;;;;5060402;28;20525;-85
2021/07/04 11:33:36;;;;;;;5.00;4.60;;;24.90;96.40;;;;;;5057037;28;20448;-84
2021/07/04 11:36:10;;;;;;;4.83;4.43;;;25.10;96.40;;;;;;5057952;28;20497;-86
2021/07/04 11:38:46;;;;;;;4.60;4.20;;;24.90;96.40;;;;;;5057977;28;20524;-85
2021/07/04 11:41:25;;;;;;;4.43;4.10;;;24.40;97.00;;;;;;5060457;28;20470;-85
2021/07/04 11:43:56;;;;;;;5.13;4.73;;;24.50;97.00;;;;;;5061478;28;20509;-85
2021/07/04 11:46:26;;;;;;;4.60;4.20;;;24.60;97.00;;;;;;5055511;28;20469;-85
2021/07/04 11:48:57;;;;;;;4.90;4.47;;;24.90;96.20;;;;;;5055468;28;20475;-85
2021/07/04 11:51:24;;;;;;;5.10;4.60;;;25.00;96.10;;;;;;5051797;28;20445;-86
2021/07/04 11:53:53;;;;;;;4.73;4.37;;;24.90;96.20;;;;;;5054552;28;20507;-86
2021/07/04 11:56:20;;;;;;;4.50;4.20;;;25.10;96.20;;;;;;5067788;28;20865;-85
2021/07/04 11:58:47;;;;;;;5.43;5.00;;;25.30;95.40;;;;;;5055039;28;20450;-86
2021/07/04 12:01:16;;;;;;;5.60;4.33;;;25.40;95.10;;;;;;5054382;28;20456;-86
2021/07/04 12:03:51;;;;;;;4.13;3.83;;;25.30;95.40;;;;;;5050759;28;20950;-84
2021/07/04 12:06:19;;;;;;;3.80;3.50;;;25.40;95.10;;;;;;5053209;28;20463;-86
2021/07/04 12:09:00;;;;;;;4.20;3.80;;;25.10;94.30;;;;;;5056217;28;20455;-84
2021/07/04 12:11:47;;;;;;;3.17;2.97;;;25.10;94.50;;;;;;5056272;28;20507;-85
2021/07/04 12:14:23;;;;;;;4.77;4.37;;;25.10;93.70;;;;;;5055920;28;20491;-84
2021/07/04 12:16:50;;;;;;;3.80;3.50;;;24.80;95.10;;;;;;5053224;28;20459;-86
2021/07/04 12:19:36;;;;;;;3.80;3.50;;;24.50;94.10;;;;;;5055907;28;20456;-85
2021/07/04 12:22:03;;;;;;;3.50;3.30;;;24.10;95.10;;;;;;5053761;28;20444;-86
2021/07/04 12:24:42;;;;;;;3.70;3.43;;;23.80;96.20;;;;;;5050959;28;20494;-86
2021/07/04 12:27:10;;;;;;;3.87;3.53;;;24.00;96.30;;;;;;5054756;28;20812;-86
2021/07/04 12:30:02;;;;;;;3.80;3.50;;;24.10;96.30;;;;;;5054487;28;20462;-86
2021/07/04 12:32:31;;;;;;;3.80;3.50;;;23.80;96.30;;;;;;5051892;28;20452;-85
2021/07/04 12:34:58;;;;;;;3.53;2.80;;;23.60;96.50;;;;;;5057770;28;20514;-85
2021/07/04 12:37:27;;;;;;;7.50;4.20;;;23.20;98.00;;;;;;5054522;28;21154;-85
2021/07/04 12:40:09;;;;;;;4.27;3.90;;;22.90;99.50;;;;;;5051043;28;20547;-84
2021/07/04 12:42:37;;;;;;;4.53;4.20;;;23.20;99.70;;;;;;5051934;28;20484;-85
2021/07/04 12:45:06;;;;;;;4.47;4.07;;;23.20;99.90;;;;;;5053771;28;20833;-83
2021/07/04 12:47:33;;;;;;;4.07;3.77;;;23.30;99.90;;;;;;5053765;28;20470;-85
2021/07/04 12:50:18;;;;;;;3.83;3.53;;;23.20;99.90;;;;;;5052323;28;20448;-85